Time;durP1;ratioP1;P1;durP2;ratioP2;P2;SDS_P1;SDS_P2;PMS_P1;PMS_P2;Temp;Humidity;BMP_temperature;BMP_pressure;BME280_temperature;BME280_humidity;BME280_pressure;Samples;Min_cycle;Max_cycle;Signal;HPM_P1;HPM_P2
2023/02/07 00:01:18;;;;;;;18.63;11.70;;;-0.80;99.90;;;;;;5030867;28;21021;-59
2023/02/07 00:03:47;;;;;;;17.70;10.90;;;-1.00;99.90;;;;;;5029714;28;21031;-59
2023/02/07 00:06:17;;;;;;;17.40;11.40;;;-1.10;99.90;;;;;;5034587;28;20970;-59
2023/02/07 00:08:45;;;;;;;17.13;11.50;;;-1.00;99.90;;;;;;5026189;28;20464;-59
2023/02/07 00:11:15;;;;;;;15.63;10.90;;;-1.00;99.90;;;;;;5013106;28;20471;-59
2023/02/07 00:13:44;;;;;;;18.47;10.90;;;-1.10;99.90;;;;;;5012844;28;20904;-59
2023/02/07 00:16:13;;;;;;;16.03;10.70;;;-1.10;99.90;;;;;;5012946;28;21014;-59
2023/02/07 00:18:42;;;;;;;16.60;10.73;;;-1.10;99.90;;;;;;5013078;28;20480;-59
2023/02/07 00:21:12;;;;;;;18.50;10.87;;;-1.10;99.90;;;;;;5012602;28;20475;-59
2023/02/07 00:23:41;;;;;;;18.30;10.33;;;-1.10;99.90;;;;;;5020385;28;20981;-59
2023/02/07 00:26:10;;;;;;;16.30;10.77;;;-1.00;99.90;;;;;;5024376;28;20486;-59
2023/02/07 00:28:39;;;;;;;18.73;12.30;;;-0.60;99.90;;;;;;5032485;28;20487;-59
2023/02/07 00:31:09;;;;;;;20.03;13.37;;;-0.30;99.90;;;;;;5029355;28;20479;-59
2023/02/07 00:33:41;;;;;;;20.53;12.47;;;-0.50;99.90;;;;;;5028587;28;20866;-59
2023/02/07 00:36:12;;;;;;;18.97;12.27;;;-0.50;99.90;;;;;;5030453;28;20459;-59
2023/02/07 00:38:40;;;;;;;18.33;13.13;;;-0.50;99.90;;;;;;5031999;28;20463;-60
2023/02/07 00:41:09;;;;;;;17.07;11.47;;;-0.90;99.90;;;;;;5032171;28;20459;-59
2023/02/07 00:43:37;;;;;;;18.07;11.87;;;-1.00;99.90;;;;;;5030737;28;20874;-59
2023/02/07 00:46:06;;;;;;;18.27;11.30;;;-1.10;99.90;;;;;;5031341;28;20540;-59
2023/02/07 00:48:34;;;;;;;16.47;11.03;;;-1.10;99.90;;;;;;5035626;28;20466;-59
2023/02/07 00:51:04;;;;;;;18.33;11.30;;;-1.10;99.90;;;;;;5034569;28;20466;-59
2023/02/07 00:53:32;;;;;;;14.03;10.23;;;-1.10;99.90;;;;;;5031447;28;20456;-59
2023/02/07 00:56:02;;;;;;;16.17;10.77;;;-1.10;99.90;;;;;;5035890;28;20452;-59
2023/02/07 00:58:30;;;;;;;13.50;10.07;;;-1.20;99.90;;;;;;5034189;28;20525;-59
2023/02/07 01:00:58;;;;;;;14.20;9.33;;;-0.90;99.90;;;;;;5034231;28;20481;-56
2023/02/07 01:03:27;;;;;;;15.37;10.00;;;-1.10;99.90;;;;;;5027466;28;20575;-57
2023/02/07 01:05:56;;;;;;;12.57;10.13;;;-1.10;99.90;;;;;;5035956;28;20487;-56
2023/02/07 01:08:27;;;;;;;16.87;10.67;;;-0.60;99.90;;;;;;5035283;28;20471;-57
2023/02/07 01:10:57;;;;;;;15.80;10.50;;;-0.30;99.90;;;;;;5034154;28;20476;-59
2023/02/07 01:13:25;;;;;;;13.97;10.27;;;-0.30;99.90;;;;;;5035299;28;20460;-59
2023/02/07 01:15:53;;;;;;;13.83;10.17;;;-0.40;99.90;;;;;;5035348;28;20832;-60
2023/02/07 01:18:21;;;;;;;18.23;10.23;;;-0.80;99.90;;;;;;5035233;28;20456;-57
2023/02/07 01:20:49;;;;;;;14.60;9.83;;;-1.00;99.90;;;;;;5033904;28;20462;-56
2023/02/07 01:23:18;;;;;;;16.10;9.83;;;-1.00;99.90;;;;;;5030908;28;20463;-57
2023/02/07 01:25:48;;;;;;;14.10;10.27;;;-1.10;99.90;;;;;;5035105;28;20491;-57
2023/02/07 01:28:16;;;;;;;15.13;10.30;;;-1.10;99.90;;;;;;5035111;28;20483;-59
2023/02/07 01:30:45;;;;;;;15.53;10.03;;;-1.10;99.90;;;;;;5029879;28;20468;-59
2023/02/07 01:33:13;;;;;;;14.03;9.63;;;-1.20;99.90;;;;;;5032997;28;20467;-56
2023/02/07 01:35:45;;;;;;;13.93;9.17;;;-1.10;99.90;;;;;;5034493;28;20455;-59
2023/02/07 01:38:13;;;;;;;15.87;9.67;;;-1.20;99.90;;;;;;5027260;28;20463;-59
2023/02/07 01:40:41;;;;;;;16.23;9.83;;;-1.20;99.90;;;;;;5034744;28;20467;-59
2023/02/07 01:43:16;;;;;;;14.23;10.20;;;-1.20;99.90;;;;;;5034529;28;20483;-59
2023/02/07 01:45:45;;;;;;;14.70;10.17;;;-1.20;99.90;;;;;;5034538;28;20970;-59
2023/02/07 01:48:17;;;;;;;13.97;10.33;;;-1.20;99.90;;;;;;5015671;28;20464;-59
2023/02/07 01:50:48;;;;;;;14.93;10.23;;;-1.20;99.90;;;;;;5014760;28;20979;-59
2023/02/07 01:53:21;;;;;;;16.20;10.43;;;-1.10;99.90;;;;;;5019527;28;20451;-59
2023/02/07 01:55:53;;;;;;;11.87;10.13;;;-1.10;99.90;;;;;;5034373;28;20466;-59
2023/02/07 01:58:23;;;;;;;15.87;10.50;;;-1.20;99.90;;;;;;5033008;28;20566;-59
2023/02/07 02:00:52;;;;;;;14.47;11.13;;;-1.10;99.90;;;;;;5031719;28;21086;-58
2023/02/07 02:03:20;;;;;;;15.70;11.13;;;-1.10;99.90;;;;;;5032159;28;20456;-58
2023/02/07 02:05:53;;;;;;;14.33;10.53;;;-0.70;99.90;;;;;;5033694;28;20474;-58
2023/02/07 02:08:21;;;;;;;17.13;11.93;;;-0.50;99.90;;;;;;5034287;28;20470;-58
2023/02/07 02:11:18;;;;;;;15.17;10.97;;;-0.60;99.90;;;;;;5032966;28;20469;-58
2023/02/07 02:13:58;;;;;;;14.77;10.30;;;-0.90;99.90;;;;;;5033141;28;20455;-58
2023/02/07 02:16:34;;;;;;;19.77;11.23;;;-1.00;99.90;;;;;;5033380;28;20831;-59
2023/02/07 02:19:26;;;;;;;15.93;11.10;;;-1.10;99.90;;;;;;5018160;28;20527;-59
2023/02/07 02:22:24;;;;;;;17.43;9.87;;;-1.10;99.90;;;;;;5014636;28;20472;-59
2023/02/07 02:25:33;;;;;;;18.13;10.60;;;-0.40;99.90;;;;;;5031937;28;21057;-58
2023/02/07 02:28:27;;;;;;;15.97;12.53;;;0.10;99.90;;;;;;5034142;28;20486;-59
2023/02/07 02:31:19;;;;;;;14.63;10.70;;;-0.30;99.90;;;;;;5032257;28;20479;-58
2023/02/07 02:33:54;;;;;;;19.50;12.30;;;-0.70;99.90;;;;;;5031467;28;20466;-58
2023/02/07 02:36:31;;;;;;;18.10;12.10;;;-0.90;99.90;;;;;;5033310;28;20533;-58
2023/02/07 02:39:05;;;;;;;16.60;11.57;;;-1.10;99.90;;;;;;5033701;28;20467;-58
2023/02/07 02:41:40;;;;;;;16.50;12.30;;;-1.10;99.90;;;;;;5032310;28;20517;-58
2023/02/07 02:44:13;;;;;;;20.20;11.83;;;-1.10;99.90;;;;;;5032312;28;20487;-59
2023/02/07 02:46:44;;;;;;;18.37;11.70;;;-1.20;99.90;;;;;;5020484;28;20576;-58
2023/02/07 02:49:15;;;;;;;16.00;10.67;;;-1.10;99.90;;;;;;5028803;28;20476;-58
2023/02/07 02:51:44;;;;;;;15.47;11.10;;;-1.20;99.90;;;;;;5033420;28;20455;-58
2023/02/07 02:54:30;;;;;;;17.83;11.47;;;-1.10;99.90;;;;;;5029410;28;20455;-59
2023/02/07 02:57:18;;;;;;;16.20;10.37;;;-1.00;99.90;;;;;;5032142;28;20510;-58
2023/02/07 03:00:17;;;;;;;15.37;11.53;;;-1.00;99.90;;;;;;5031322;28;20455;-59
2023/02/07 03:02:59;;;;;;;15.63;10.60;;;-1.00;99.90;;;;;;5010597;28;20491;-58
2023/02/07 03:05:38;;;;;;;17.83;11.10;;;-0.90;99.90;;;;;;4996595;28;20461;-58
2023/02/07 03:08:17;;;;;;;17.80;11.47;;;-0.80;99.90;;;;;;4994652;28;20523;-58
2023/02/07 03:10:54;;;;;;;18.33;11.47;;;-1.00;99.90;;;;;;4976922;28;21019;-59
2023/02/07 03:13:28;;;;;;;15.80;11.50;;;-0.80;99.90;;;;;;4991753;28;20465;-58
2023/02/07 03:16:07;;;;;;;16.50;11.00;;;-0.70;99.90;;;;;;4977901;28;21082;-58
2023/02/07 03:18:45;;;;;;;15.60;11.33;;;-0.90;99.90;;;;;;5026467;28;20808;-58
2023/02/07 03:21:21;;;;;;;15.70;9.93;;;-0.90;99.90;;;;;;5044382;28;21015;-58
2023/02/07 03:23:51;;;;;;;18.67;12.60;;;-0.90;99.90;;;;;;5039598;28;20523;-59
2023/02/07 03:26:20;;;;;;;20.43;13.37;;;-0.90;99.90;;;;;;5033225;28;20946;-58
2023/02/07 03:28:54;;;;;;;18.37;13.00;;;-0.90;99.90;;;;;;5033085;28;20962;-59
2023/02/07 03:35:51;;;;;;;16.27;10.83;;;-1.10;99.90;;;;;;5028848;28;20505;-58
2023/02/07 03:38:20;;;;;;;17.53;12.60;;;-1.20;99.90;;;;;;5032648;28;20494;-58
2023/02/07 03:40:56;;;;;;;15.67;10.70;;;-1.30;99.90;;;;;;5032669;28;20471;-59
2023/02/07 03:43:27;;;;;;;18.17;12.57;;;-0.60;99.90;;;;;;5032745;28;21032;-58
2023/02/07 03:45:55;;;;;;;15.33;11.30;;;-0.60;99.90;;;;;;5024000;28;20948;-58
2023/02/07 03:48:24;;;;;;;14.90;11.50;;;-0.90;99.90;;;;;;5013146;28;20488;-58
2023/02/07 03:50:53;;;;;;;16.97;11.73;;;-1.10;99.90;;;;;;5012916;28;20917;-58
2023/02/07 03:53:22;;;;;;;15.53;10.53;;;-1.20;99.90;;;;;;5017918;28;20462;-59
2023/02/07 03:55:52;;;;;;;15.00;10.83;;;-1.30;99.90;;;;;;5030266;28;20490;-58
2023/02/07 03:58:20;;;;;;;14.97;11.20;;;-1.30;99.90;;;;;;5032635;28;20834;-58
2023/02/07 04:00:48;;;;;;;17.00;11.43;;;-1.10;99.90;;;;;;5031798;28;20845;-58
2023/02/07 04:03:16;;;;;;;15.63;11.27;;;-1.20;99.90;;;;;;5030538;28;20499;-58
2023/02/07 04:05:45;;;;;;;17.20;10.90;;;-1.00;99.90;;;;;;5029894;28;20962;-58
2023/02/07 04:08:13;;;;;;;14.40;10.17;;;-1.10;99.90;;;;;;5032555;28;20494;-58
2023/02/07 04:10:42;;;;;;;18.17;12.17;;;-1.10;99.90;;;;;;5032606;28;20467;-58
2023/02/07 04:13:10;;;;;;;17.33;12.50;;;-1.00;99.90;;;;;;5032418;28;20467;-58
2023/02/07 04:15:38;;;;;;;15.13;11.37;;;-1.00;99.90;;;;;;5018151;28;20470;-59
2023/02/07 04:18:07;;;;;;;17.33;11.60;;;-0.80;99.90;;;;;;5012689;28;20491;-59
2023/02/07 04:20:35;;;;;;;17.93;12.40;;;-1.10;99.90;;;;;;5013920;28;20472;-59
2023/02/07 04:23:03;;;;;;;20.00;13.33;;;-0.70;99.90;;;;;;5019365;28;20964;-59
2023/02/07 04:25:31;;;;;;;15.43;11.00;;;-0.90;99.90;;;;;;5029421;28;20455;-58
2023/02/07 04:28:00;;;;;;;19.70;13.30;;;-0.70;99.90;;;;;;5036130;28;20495;-58
2023/02/07 04:30:29;;;;;;;21.43;14.23;;;-0.80;99.90;;;;;;5035889;28;20517;-58
2023/02/07 04:32:57;;;;;;;18.17;11.83;;;-1.20;99.90;;;;;;5033723;28;20511;-58
2023/02/07 04:35:25;;;;;;;20.83;13.73;;;-0.90;99.90;;;;;;5032118;28;20475;-59
2023/02/07 04:37:53;;;;;;;20.23;13.87;;;-1.00;99.90;;;;;;5036198;28;20467;-59
2023/02/07 04:40:21;;;;;;;19.33;13.47;;;-1.10;99.90;;;;;;5036290;28;20873;-58
2023/02/07 04:42:50;;;;;;;17.93;12.53;;;-1.30;99.90;;;;;;5035569;28;20479;-58
2023/02/07 04:45:19;;;;;;;21.53;13.40;;;-1.60;99.90;;;;;;5025617;28;20479;-58
2023/02/07 04:47:47;;;;;;;20.83;13.83;;;-1.70;99.90;;;;;;5016261;28;20495;-58
2023/02/07 04:50:15;;;;;;;19.80;14.30;;;-1.80;99.90;;;;;;5016134;28;20475;-58
2023/02/07 04:52:43;;;;;;;18.93;13.50;;;-1.80;99.90;;;;;;5016089;28;20980;-58
2023/02/07 04:55:11;;;;;;;18.70;12.50;;;-1.80;99.90;;;;;;5035891;28;20974;-58
2023/02/07 04:57:39;;;;;;;19.37;11.40;;;-1.60;99.90;;;;;;5035466;28;20474;-58
2023/02/07 05:00:08;;;;;;;19.33;12.97;;;-1.10;99.90;;;;;;5035486;28;20479;-58
2023/02/07 05:02:38;;;;;;;17.37;12.83;;;-1.50;99.90;;;;;;5053956;28;20473;-58
2023/02/07 05:05:07;;;;;;;16.57;12.20;;;-1.70;99.90;;;;;;5063506;28;20533;-58
2023/02/07 05:07:35;;;;;;;15.83;11.93;;;-1.80;99.90;;;;;;5055474;28;20474;-59
2023/02/07 05:10:03;;;;;;;16.70;11.87;;;-1.80;99.90;;;;;;5055510;28;20485;-59
2023/02/07 05:12:31;;;;;;;15.07;10.80;;;-1.90;99.90;;;;;;5052089;28;20481;-58
2023/02/07 05:14:59;;;;;;;15.33;11.23;;;-2.00;99.90;;;;;;5062959;28;20458;-58
2023/02/07 05:17:27;;;;;;;16.33;10.73;;;-2.00;99.90;;;;;;5068264;28;20466;-58
2023/02/07 05:19:56;;;;;;;15.83;10.80;;;-1.40;99.90;;;;;;5064341;28;20466;-58
2023/02/07 05:22:25;;;;;;;16.73;11.87;;;-1.10;99.90;;;;;;5055466;28;20473;-59
2023/02/07 05:24:53;;;;;;;18.50;12.37;;;-0.70;99.90;;;;;;5062332;28;20461;-58
2023/02/07 05:27:21;;;;;;;20.30;13.93;;;-0.40;99.90;;;;;;5075412;28;20555;-59
2023/02/07 05:29:49;;;;;;;18.83;12.57;;;-0.50;99.90;;;;;;5075065;28;20984;-58
2023/02/07 05:35:04;;;;;;;20.27;14.03;;;-0.40;99.90;;;;;;5056158;28;20477;-59
2023/02/07 05:37:33;;;;;;;24.80;15.67;;;-0.40;99.90;;;;;;5054406;28;20462;-59
2023/02/07 05:40:02;;;;;;;21.47;14.77;;;-0.30;99.90;;;;;;5055098;28;20538;-59
2023/02/07 05:42:30;;;;;;;23.73;14.80;;;-0.70;99.90;;;;;;5054342;28;20478;-58
2023/02/07 05:44:58;;;;;;;20.03;13.80;;;-1.40;99.90;;;;;;5042389;28;20479;-59
2023/02/07 05:47:26;;;;;;;25.50;16.93;;;-1.30;99.90;;;;;;5046917;28;20463;-58
2023/02/07 05:49:54;;;;;;;23.97;16.20;;;-1.40;99.90;;;;;;5054386;28;20486;-58
2023/02/07 05:52:23;;;;;;;19.27;12.97;;;-1.80;99.90;;;;;;5055770;28;20470;-58
2023/02/07 05:54:52;;;;;;;22.63;14.33;;;-1.60;99.90;;;;;;5054407;28;20485;-58
2023/02/07 05:57:20;;;;;;;23.57;14.23;;;-1.20;99.90;;;;;;5054150;28;20462;-58
2023/02/07 05:59:48;;;;;;;25.73;16.03;;;-1.10;99.90;;;;;;5034560;28;20951;-58
2023/02/07 06:02:16;;;;;;;25.97;16.20;;;-0.70;99.90;;;;;;5053851;28;21079;-58
2023/02/07 06:04:45;;;;;;;23.10;15.30;;;-0.80;99.90;;;;;;5056018;28;20509;-59
2023/02/07 06:07:13;;;;;;;28.80;16.47;;;-1.20;99.90;;;;;;5054055;28;20462;-58
2023/02/07 06:09:42;;;;;;;32.53;17.57;;;-0.70;99.90;;;;;;5054004;28;20499;-58
2023/02/07 06:12:10;;;;;;;30.30;19.83;;;-0.70;99.90;;;;;;5054122;28;20481;-59
2023/02/07 06:14:38;;;;;;;29.40;18.83;;;-1.00;99.90;;;;;;5054209;28;20493;-59
2023/02/07 06:17:06;;;;;;;29.10;17.73;;;-1.70;99.90;;;;;;5053909;28;20462;-59
2023/02/07 06:19:34;;;;;;;32.73;17.07;;;-2.10;99.90;;;;;;5053934;28;20856;-59
2023/02/07 06:22:02;;;;;;;30.87;18.53;;;-2.20;99.90;;;;;;5054224;28;20466;-58
2023/02/07 06:24:30;;;;;;;29.97;16.27;;;-1.40;99.90;;;;;;5053819;28;20950;-58
2023/02/07 06:27:00;;;;;;;32.63;18.80;;;-1.70;99.90;;;;;;5053197;28;20466;-58
2023/02/07 06:29:28;;;;;;;28.40;18.00;;;-2.00;99.90;;;;;;5053557;28;20489;-58
2023/02/07 06:31:56;;;;;;;28.73;18.97;;;-2.30;99.90;;;;;;5037580;28;20997;-59
2023/02/07 06:34:24;;;;;;;33.13;19.33;;;-2.40;99.90;;;;;;5036880;28;20479;-58
2023/02/07 06:36:52;;;;;;;27.93;18.37;;;-2.40;99.90;;;;;;5029434;28;20986;-58
2023/02/07 06:39:20;;;;;;;30.33;19.97;;;-2.50;99.90;;;;;;5026861;28;20460;-58
2023/02/07 06:41:48;;;;;;;28.93;19.30;;;-2.50;99.90;;;;;;5040853;28;20549;-59
2023/02/07 06:44:18;;;;;;;27.07;18.60;;;-2.50;99.90;;;;;;5023955;28;20470;-58
2023/02/07 06:46:46;;;;;;;30.37;19.57;;;-2.60;99.90;;;;;;5024967;28;20480;-57
2023/02/07 06:49:14;;;;;;;28.27;18.63;;;-2.50;99.90;;;;;;5023274;28;20903;-58
2023/02/07 06:51:42;;;;;;;30.60;21.23;;;-2.50;99.90;;;;;;5032894;28;20466;-58
2023/02/07 06:54:10;;;;;;;28.87;19.63;;;-2.50;99.90;;;;;;5027717;28;20990;-59
2023/02/07 06:56:38;;;;;;;25.07;18.27;;;-2.50;99.90;;;;;;5027404;28;20464;-57
2023/02/07 06:59:06;;;;;;;26.47;17.87;;;-2.50;99.90;;;;;;5037314;28;20862;-58
2023/02/07 07:01:35;;;;;;;25.10;17.03;;;-2.50;99.90;;;;;;5032518;28;20480;-58
2023/02/07 07:04:04;;;;;;;23.13;16.63;;;-2.60;99.90;;;;;;5031673;28;21324;-58
2023/02/07 07:06:32;;;;;;;22.87;15.50;;;-2.50;99.90;;;;;;5034910;28;20474;-58
2023/02/07 07:09:00;;;;;;;22.67;16.50;;;-2.50;99.90;;;;;;5037745;28;21027;-58
2023/02/07 07:11:28;;;;;;;23.70;15.97;;;-2.60;99.90;;;;;;5029836;28;20796;-58
2023/02/07 07:13:57;;;;;;;23.03;15.87;;;-2.60;99.90;;;;;;5032031;28;20474;-58
2023/02/07 07:16:25;;;;;;;19.33;12.50;;;-2.60;99.90;;;;;;5034988;28;20463;-59
2023/02/07 07:18:54;;;;;;;17.57;13.47;;;-2.50;99.90;;;;;;5025150;28;20908;-58
2023/02/07 07:21:22;;;;;;;19.23;13.60;;;-2.30;99.90;;;;;;5050139;28;20467;-58
2023/02/07 07:23:50;;;;;;;23.53;16.17;;;-1.80;99.90;;;;;;5041369;28;20980;-58
2023/02/07 07:26:18;;;;;;;24.53;17.90;;;-2.10;99.90;;;;;;5040146;28;20974;-58
2023/02/07 07:28:48;;;;;;;25.93;16.83;;;-2.40;99.90;;;;;;5032722;28;20464;-58
2023/02/07 07:31:16;;;;;;;24.50;16.37;;;-2.50;99.90;;;;;;5043579;28;21037;-57
2023/02/07 07:33:45;;;;;;;24.20;17.07;;;-2.60;99.90;;;;;;5028462;28;20467;-58
2023/02/07 07:36:14;;;;;;;27.37;17.30;;;-2.60;99.90;;;;;;5023131;28;20470;-57
2023/02/07 07:38:42;;;;;;;23.73;16.50;;;-2.50;99.90;;;;;;5017832;28;20491;-58
2023/02/07 07:41:14;;;;;;;23.03;16.63;;;-2.50;99.90;;;;;;5018710;28;20526;-59
2023/02/07 07:43:42;;;;;;;21.27;14.63;;;-2.50;99.90;;;;;;5019676;28;20986;-57
2023/02/07 07:46:10;;;;;;;24.20;16.47;;;-2.40;99.90;;;;;;5037261;28;20467;-58
2023/02/07 07:48:38;;;;;;;25.70;18.20;;;-2.30;99.90;;;;;;5036958;28;20966;-58
2023/02/07 07:51:07;;;;;;;29.43;18.03;;;-2.30;99.90;;;;;;5035775;28;20483;-58
2023/02/07 07:53:36;;;;;;;25.73;17.70;;;-2.30;99.90;;;;;;5034117;28;20482;-58
2023/02/07 07:56:05;;;;;;;24.67;16.77;;;-2.20;99.90;;;;;;5047421;28;20474;-58
2023/02/07 07:58:33;;;;;;;24.10;16.27;;;-2.20;99.90;;;;;;5032440;28;20463;-58
2023/02/07 08:01:01;;;;;;;23.63;17.00;;;-2.20;99.90;;;;;;5047428;28;20897;-58
2023/02/07 08:03:29;;;;;;;22.03;15.80;;;-2.10;99.90;;;;;;5035663;28;20513;-58
2023/02/07 08:05:57;;;;;;;22.27;17.00;;;-2.00;99.90;;;;;;5036419;28;21002;-58
2023/02/07 08:08:25;;;;;;;22.93;15.30;;;-2.00;99.90;;;;;;5033421;28;20474;-58
2023/02/07 08:10:55;;;;;;;21.40;15.60;;;-1.90;99.90;;;;;;5036476;28;20485;-58
2023/02/07 08:13:23;;;;;;;20.60;15.17;;;-1.80;99.90;;;;;;5038308;28;20977;-59
2023/02/07 08:15:52;;;;;;;23.40;16.27;;;-1.70;99.90;;;;;;5034024;28;20463;-58
2023/02/07 08:18:20;;;;;;;24.20;17.67;;;-1.60;99.90;;;;;;5032700;28;20471;-58
2023/02/07 08:20:49;;;;;;;21.57;16.90;;;-1.50;99.90;;;;;;5036589;28;20467;-57
2023/02/07 08:23:17;;;;;;;24.23;17.03;;;-1.40;99.90;;;;;;5032411;28;20466;-58
2023/02/07 08:25:46;;;;;;;25.73;17.33;;;-1.30;99.90;;;;;;5032100;28;20478;-58
2023/02/07 08:28:15;;;;;;;24.57;16.67;;;-1.30;99.90;;;;;;5032566;28;20978;-58
2023/02/07 08:30:46;;;;;;;25.70;16.50;;;-1.00;99.90;;;;;;5031311;28;20529;-58
2023/02/07 08:33:14;;;;;;;27.23;18.53;;;-0.60;99.90;;;;;;5035272;28;20509;-58
2023/02/07 08:35:43;;;;;;;25.37;17.93;;;-0.70;99.90;;;;;;5041458;28;20459;-58
2023/02/07 08:38:11;;;;;;;30.57;19.57;;;-0.80;99.90;;;;;;5024392;28;20862;-58
2023/02/07 08:40:39;;;;;;;29.23;20.83;;;-0.50;99.90;;;;;;5031956;28;20550;-58
2023/02/07 08:43:11;;;;;;;31.43;20.07;;;-0.60;99.90;;;;;;5031979;28;20487;-58
2023/02/07 08:45:42;;;;;;;28.10;18.97;;;-0.60;99.90;;;;;;5032013;28;20471;-58
2023/02/07 08:48:10;;;;;;;31.90;21.50;;;-0.50;99.90;;;;;;5032081;28;20464;-58
2023/02/07 08:50:38;;;;;;;29.00;21.30;;;-0.50;99.90;;;;;;5032144;28;20995;-58
2023/02/07 08:53:07;;;;;;;33.53;22.23;;;-0.40;99.90;;;;;;5012273;28;20475;-58
2023/02/07 08:55:35;;;;;;;30.70;20.73;;;-0.20;99.90;;;;;;5019541;28;20478;-59
2023/02/07 08:58:03;;;;;;;31.57;21.50;;;-0.10;99.90;;;;;;5032105;28;20463;-58
2023/02/07 09:00:34;;;;;;;30.87;20.90;;;-0.10;99.90;;;;;;5031543;28;20997;-58
2023/02/07 09:03:04;;;;;;;32.63;22.13;;;0.10;99.90;;;;;;5042373;28;20529;-59
2023/02/07 09:05:32;;;;;;;29.67;21.03;;;0.20;99.90;;;;;;5042638;28;20466;-58
2023/02/07 09:08:00;;;;;;;30.63;20.57;;;0.30;99.90;;;;;;5035910;28;20517;-58
2023/02/07 09:10:28;;;;;;;32.87;21.50;;;0.30;99.90;;;;;;5040932;28;20475;-58
2023/02/07 09:12:56;;;;;;;31.17;21.93;;;0.50;99.90;;;;;;5035639;28;20846;-58
2023/02/07 09:15:25;;;;;;;32.90;22.13;;;0.60;99.90;;;;;;5031878;28;20473;-58
2023/02/07 09:17:53;;;;;;;32.20;23.20;;;0.60;99.90;;;;;;5015587;28;20471;-59
2023/02/07 09:20:22;;;;;;;33.03;22.70;;;0.80;99.90;;;;;;5015558;28;20467;-59
2023/02/07 09:25:37;;;;;;;31.73;22.87;;;1.10;99.90;;;;;;5015568;28;20970;-59
2023/02/07 09:28:05;;;;;;;30.30;21.97;;;1.30;99.90;;;;;;5015092;28;20464;-59
2023/02/07 09:30:34;;;;;;;36.47;24.63;;;1.30;99.90;;;;;;5029749;28;20880;-59
2023/02/07 09:33:02;;;;;;;34.53;22.80;;;1.40;99.90;;;;;;5037510;28;20577;-59
2023/02/07 09:35:31;;;;;;;34.67;23.77;;;1.50;99.90;;;;;;5046110;28;20471;-59
2023/02/07 09:38:00;;;;;;;29.93;22.00;;;1.80;99.90;;;;;;5035105;28;20812;-58
2023/02/07 09:40:28;;;;;;;35.87;27.20;;;1.90;99.90;;;;;;5017343;28;20460;-59
2023/02/07 09:42:59;;;;;;;33.67;25.70;;;1.90;99.90;;;;;;5017881;28;20571;-59
2023/02/07 09:45:32;;;;;;;29.93;22.57;;;2.10;99.90;;;;;;5034726;28;20471;-59
2023/02/07 09:48:04;;;;;;;30.67;22.33;;;2.10;99.90;;;;;;5034820;28;20466;-59
2023/02/07 09:50:38;;;;;;;29.10;22.80;;;2.10;99.90;;;;;;5034701;28;20480;-59
2023/02/07 09:53:14;;;;;;;30.20;22.20;;;2.30;99.90;;;;;;5025519;28;20470;-59
2023/02/07 09:55:48;;;;;;;32.47;22.90;;;2.50;99.90;;;;;;5034399;28;20871;-59
2023/02/07 09:58:20;;;;;;;29.80;22.13;;;2.60;99.90;;;;;;5034933;28;20990;-59
2023/02/07 10:00:58;;;;;;;30.37;21.80;;;2.70;99.90;;;;;;5038444;28;21001;-60
2023/02/07 10:03:28;;;;;;;30.87;22.57;;;3.00;99.90;;;;;;5040052;28;20479;-59
2023/02/07 10:06:01;;;;;;;31.20;23.17;;;3.10;99.90;;;;;;5044430;28;20493;-59
2023/02/07 10:08:44;;;;;;;30.27;21.73;;;3.30;99.90;;;;;;5050641;28;20476;-59
2023/02/07 10:11:23;;;;;;;27.27;21.53;;;3.40;99.90;;;;;;5039763;28;20492;-59
2023/02/07 10:14:04;;;;;;;27.03;20.83;;;3.40;99.90;;;;;;5042186;28;20848;-59
2023/02/07 10:16:46;;;;;;;26.10;19.23;;;3.60;99.90;;;;;;5022001;28;20478;-60
2023/02/07 10:19:26;;;;;;;23.73;19.63;;;3.70;99.90;;;;;;5028202;28;20831;-59
2023/02/07 10:22:06;;;;;;;24.67;19.27;;;3.70;99.90;;;;;;5028474;28;20852;-60
2023/02/07 10:24:55;;;;;;;27.00;20.33;;;3.80;99.90;;;;;;5022905;28;20462;-59
2023/02/07 10:27:30;;;;;;;25.80;20.17;;;4.00;99.90;;;;;;5032751;28;20477;-59
2023/02/07 10:30:04;;;;;;;21.00;17.33;;;4.00;99.90;;;;;;5052524;28;20950;-59
2023/02/07 10:32:36;;;;;;;21.30;17.43;;;4.00;99.90;;;;;;5037395;28;20472;-60
2023/02/07 10:35:14;;;;;;;23.10;17.97;;;4.10;99.90;;;;;;5035807;28;20486;-59
2023/02/07 10:37:46;;;;;;;22.07;17.90;;;4.20;99.90;;;;;;5042185;28;20469;-60
2023/02/07 10:40:19;;;;;;;20.27;16.57;;;4.30;99.90;;;;;;5029056;28;20474;-59
2023/02/07 10:42:54;;;;;;;20.77;17.73;;;4.30;99.90;;;;;;5013881;28;20488;-59
2023/02/07 10:45:22;;;;;;;22.17;17.57;;;4.40;99.90;;;;;;5013941;28;20470;-59
2023/02/07 10:47:50;;;;;;;22.20;16.47;;;4.60;99.90;;;;;;5013854;28;20487;-59
2023/02/07 10:50:22;;;;;;;17.93;15.53;;;4.60;99.90;;;;;;5013815;28;20471;-60
2023/02/07 10:52:59;;;;;;;20.50;16.63;;;4.70;99.90;;;;;;5033359;28;20828;-60
2023/02/07 10:55:39;;;;;;;19.90;16.37;;;4.70;99.90;;;;;;5053302;28;20464;-60
2023/02/07 10:58:13;;;;;;;18.03;14.87;;;4.70;99.90;;;;;;5053402;28;20458;-60
2023/02/07 11:00:52;;;;;;;21.73;15.80;;;4.70;99.90;;;;;;5045399;28;20835;-58
2023/02/07 11:03:21;;;;;;;20.10;16.07;;;4.90;99.90;;;;;;5031042;28;20506;-59
2023/02/07 11:05:56;;;;;;;19.97;16.27;;;5.00;99.90;;;;;;5033808;28;20482;-59
2023/02/07 11:08:27;;;;;;;18.57;15.70;;;5.30;99.90;;;;;;5033459;28;20820;-60
2023/02/07 11:10:57;;;;;;;18.60;14.83;;;5.50;99.90;;;;;;5033416;28;20834;-59
2023/02/07 11:13:27;;;;;;;18.07;14.63;;;5.50;99.90;;;;;;5033091;28;20510;-60
2023/02/07 11:16:00;;;;;;;15.40;13.57;;;5.50;99.90;;;;;;5027073;28;21008;-59
2023/02/07 11:18:40;;;;;;;17.87;15.13;;;5.60;99.90;;;;;;5013849;28;20485;-59
2023/02/07 11:21:24;;;;;;;16.60;14.80;;;5.70;99.90;;;;;;5014587;28;20470;-59
2023/02/07 11:23:57;;;;;;;16.63;14.83;;;5.80;99.90;;;;;;5029604;28;20473;-59
2023/02/07 11:26:25;;;;;;;18.13;15.60;;;5.80;99.90;;;;;;5033031;28;20922;-60
2023/02/07 11:29:01;;;;;;;17.23;14.77;;;5.90;99.90;;;;;;5032950;28;20470;-59
2023/02/07 11:31:32;;;;;;;16.57;14.07;;;5.90;99.90;;;;;;5031684;28;20479;-59
2023/02/07 11:34:10;;;;;;;16.60;14.57;;;6.10;99.90;;;;;;5031014;28;20255;-60
2023/02/07 11:36:38;;;;;;;16.97;14.53;;;6.10;99.90;;;;;;5032260;28;20232;-59
2023/02/07 11:39:16;;;;;;;18.43;15.47;;;6.00;99.90;;;;;;5026957;28;20479;-59
2023/02/07 11:41:54;;;;;;;16.10;13.43;;;6.30;99.90;;;;;;5032980;28;20973;-59
2023/02/07 11:44:25;;;;;;;15.60;13.90;;;6.30;99.90;;;;;;5032720;28;20498;-59
2023/02/07 11:46:57;;;;;;;17.27;14.03;;;6.30;99.90;;;;;;5029587;28;20875;-59
2023/02/07 11:49:28;;;;;;;15.17;13.43;;;6.50;99.90;;;;;;5032237;28;20959;-59
2023/02/07 11:52:00;;;;;;;17.87;14.00;;;6.50;99.90;;;;;;5032644;28;20483;-57
2023/02/07 11:54:30;;;;;;;15.60;13.73;;;6.40;99.90;;;;;;5024019;28;20229;-58
2023/02/07 11:57:02;;;;;;;18.57;13.83;;;6.60;99.90;;;;;;5016109;28;20484;-57
2023/02/07 11:59:32;;;;;;;16.90;14.37;;;6.60;99.90;;;;;;5012664;28;20236;-57
2023/02/07 12:02:17;;;;;;;15.73;13.60;;;6.50;99.90;;;;;;5027236;28;20228;-57
2023/02/07 12:04:45;;;;;;;16.07;13.27;;;6.30;99.90;;;;;;5026359;28;20231;-57
2023/02/07 12:07:18;;;;;;;14.47;12.33;;;6.00;99.90;;;;;;5029846;28;20231;-58
2023/02/07 12:09:51;;;;;;;14.43;12.23;;;5.90;99.90;;;;;;5032418;28;20247;-57
2023/02/07 12:12:23;;;;;;;14.73;12.93;;;5.80;99.90;;;;;;5032475;28;20273;-58
2023/02/07 12:14:56;;;;;;;15.80;13.07;;;5.90;99.90;;;;;;5027032;28;20231;-58
2023/02/07 12:17:32;;;;;;;14.87;11.97;;;5.90;99.90;;;;;;5012594;28;20589;-58
2023/02/07 12:20:08;;;;;;;14.20;12.27;;;5.80;99.90;;;;;;5031283;28;20547;-57
2023/02/07 12:22:44;;;;;;;14.93;12.83;;;5.90;99.90;;;;;;5032247;28;20458;-58
2023/02/07 12:25:31;;;;;;;15.47;12.30;;;5.90;99.90;;;;;;5012800;28;20470;-57
2023/02/07 12:28:04;;;;;;;15.13;12.37;;;6.00;99.90;;;;;;5012821;28;20889;-56
2023/02/07 12:30:40;;;;;;;13.77;11.03;;;6.10;99.90;;;;;;5023879;28;20471;-58
2023/02/07 12:33:16;;;;;;;13.87;11.17;;;6.00;99.90;;;;;;5031746;28;20528;-58
2023/02/07 12:35:53;;;;;;;13.47;11.00;;;6.10;99.90;;;;;;5033855;28;20480;-57
2023/02/07 12:38:27;;;;;;;12.27;10.67;;;6.10;99.90;;;;;;5032196;28;20687;-57
2023/02/07 12:41:02;;;;;;;12.67;10.40;;;6.00;99.90;;;;;;5032467;28;20587;-58
2023/02/07 12:43:32;;;;;;;12.63;10.27;;;5.90;99.90;;;;;;5034678;28;21004;-57
2023/02/07 12:46:14;;;;;;;10.07;8.70;;;5.80;99.90;;;;;;5036157;28;20239;-57
2023/02/07 12:49:10;;;;;;;10.80;9.17;;;5.80;99.90;;;;;;5035902;28;20478;-57
2023/02/07 12:51:46;;;;;;;11.50;10.30;;;5.90;99.90;;;;;;5034717;28;20819;-57
2023/02/07 12:54:29;;;;;;;11.83;10.63;;;6.10;99.90;;;;;;5028221;28;20224;-57
2023/02/07 12:57:07;;;;;;;11.70;9.83;;;6.00;99.90;;;;;;5036044;28;20466;-57
2023/02/07 12:59:45;;;;;;;9.87;8.67;;;6.00;99.90;;;;;;5035818;28;20695;-57
2023/02/07 13:02:24;;;;;;;10.17;8.50;;;5.80;99.90;;;;;;5034876;28;20640;-57